Jeffrey G. — WDF9488 — position and weather

sailwx.info

Track history (hours):
 
Tides and Currents Weather Stations Pressure Air Temp Water Temp Dewpoint Dewpoint Depression Visibility Wind Speed Wind Dir Waves Ship Positions

Jeffrey G.

Owner: Marquette Transportation Co. LLC, Paducah, KY. More information available from US FCC via Universal Licensing System and Coast Guard Vessel Documentation Center.

Last reported at 2017-Oct-15 13:35 UTC. Time now 2017-Oct-17 11:13 UTC.
Position N 32°38' W 091°09'.

Length 43 m; draft 3.7 m.

Type: Towing. MMSI: 367505670.

Date/timePositionNaut miles runAvg speedWind from/ knotsBaromVisibWave heightAir tempDewpointWater temp
2017-Oct-15 13:35N 32°38' W 091°09'1 7.5
2017-Oct-15 13:29N 32°37' W 091°09'3 7.3
2017-Oct-15 13:00N 32°35' W 091°07'3 6.4
2017-Oct-15 12:28N 32°31' W 091°06'3 7.1
2017-Oct-15 12:01N 32°28' W 091°06'4 7.3
2017-Oct-15 11:31N 32°26' W 091°02'3 6.3
2017-Oct-15 11:00N 32°24' W 090°59'3 5.9
2017-Oct-15 10:31N 32°21' W 090°59'2 4.1
2017-Oct-15 10:01N 32°21' W 090°56'3 5.1
2017-Oct-15 09:31N 32°20' W 090°54'2 4.2
2017-Oct-15 09:00N 32°18' W 090°55'0 0.7
2017-Oct-15 08:31N 32°18' W 090°56'3 5.7
2017-Oct-15 08:01N 32°16' W 090°58'3 5.9
2017-Oct-15 07:30N 32°13' W 090°59'4 7.0
2017-Oct-15 07:00N 32°09' W 091°00'3 6.0
2017-Oct-15 06:31N 32°07' W 091°03'3 5.9
2017-Oct-15 06:00N 32°08' W 091°06'4 3.3
2017-Oct-15 04:45N 32°04' W 091°04'2 6.6
2017-Oct-15 04:29N 32°03' W 091°04'7 7.0
2017-Oct-15 03:31N 31°59' W 091°10'0 7.5
2017-Oct-15 03:29N 31°59' W 091°10'10 5.8
2017-Oct-15 01:50N 31°51' W 091°18'  
2017-Oct-09 08:23N 31°49' W 091°21'13 6.5
2017-Oct-09 06:19N 31°59' W 091°11'5 7.0
2017-Oct-09 05:39N 31°60' W 091°05'1 6.9
2017-Oct-09 05:30N 32°01' W 091°05'4 7.0
2017-Oct-09 04:56N 32°05' W 091°04'3 7.1
2017-Oct-09 04:30N 32°07' W 091°06'1 2.8
2017-Oct-09 04:00N 32°08' W 091°06'3 6.6
2017-Oct-09 03:30N 32°07' W 091°02'4 7.5
2017-Oct-09 03:00N 32°11' W 090°60'4 7.9
2017-Oct-09 02:30N 32°14' W 090°59'4 7.9
2017-Oct-09 02:00N 32°17' W 090°56'3 6.6
2017-Oct-09 01:30N 32°20' W 090°54'4 7.3
2017-Oct-09 01:00N 32°21' W 090°59'3 5.0
2017-Oct-09 00:30N 32°23' W 090°60'3 6.8
2017-Oct-09 00:00N 32°26' W 091°02'4 7.7
2017-Oct-08 23:30N 32°28' W 091°06'1 2.5
2017-Oct-08 23:00N 32°29' W 091°07'0 0.0
2017-Oct-08 22:30N 32°29' W 091°07'0 0.0
2017-Oct-08 22:00N 32°29' W 091°07'0 0.0
2017-Oct-08 21:30N 32°29' W 091°07'0 0.0
2017-Oct-08 21:00N 32°29' W 091°07'0 0.0
2017-Oct-08 20:30N 32°29' W 091°07'0 0.0
2017-Oct-08 20:00N 32°29' W 091°07'2 4.5
2017-Oct-08 19:30N 32°31' W 091°06'4 7.5
2017-Oct-08 19:00N 32°35' W 091°07'5 8.1
2017-Oct-08 18:26N 32°39' W 091°09'  
Track history (hours):
 
Tides and Currents Weather Stations Pressure Air Temp Water Temp Dewpoint Dewpoint Depression Visibility Wind Speed Wind Dir Waves Ship Positions

Jeffrey G.

Owner: Marquette Transportation Co. LLC, Paducah, KY. More information available from US FCC via Universal Licensing System and Coast Guard Vessel Documentation Center.

Last reported at 2017-Oct-15 13:35 UTC. Time now 2017-Oct-17 11:13 UTC.
Position N 32°38' W 091°09'.

Length 43 m; draft 3.7 m.

Type: Towing. MMSI: 367505670.

Date/timePositionNaut miles runAvg speedWind from/ knotsBaromVisibWave heightAir tempDewpointWater temp
2017-Oct-15 13:35N 32°38' W 091°09'1 7.5
2017-Oct-15 13:29N 32°37' W 091°09'3 7.3
2017-Oct-15 13:00N 32°35' W 091°07'3 6.4
2017-Oct-15 12:28N 32°31' W 091°06'3 7.1
2017-Oct-15 12:01N 32°28' W 091°06'4 7.3
2017-Oct-15 11:31N 32°26' W 091°02'3 6.3
2017-Oct-15 11:00N 32°24' W 090°59'3 5.9
2017-Oct-15 10:31N 32°21' W 090°59'2 4.1
2017-Oct-15 10:01N 32°21' W 090°56'3 5.1
2017-Oct-15 09:31N 32°20' W 090°54'2 4.2
2017-Oct-15 09:00N 32°18' W 090°55'0 0.7
2017-Oct-15 08:31N 32°18' W 090°56'3 5.7
2017-Oct-15 08:01N 32°16' W 090°58'3 5.9
2017-Oct-15 07:30N 32°13' W 090°59'4 7.0
2017-Oct-15 07:00N 32°09' W 091°00'3 6.0
2017-Oct-15 06:31N 32°07' W 091°03'3 5.9
2017-Oct-15 06:00N 32°08' W 091°06'4 3.3
2017-Oct-15 04:45N 32°04' W 091°04'2 6.6
2017-Oct-15 04:29N 32°03' W 091°04'7 7.0
2017-Oct-15 03:31N 31°59' W 091°10'0 7.5
2017-Oct-15 03:29N 31°59' W 091°10'10 5.8
2017-Oct-15 01:50N 31°51' W 091°18'  
2017-Oct-09 08:23N 31°49' W 091°21'13 6.5
2017-Oct-09 06:19N 31°59' W 091°11'5 7.0
2017-Oct-09 05:39N 31°60' W 091°05'1 6.9
2017-Oct-09 05:30N 32°01' W 091°05'4 7.0
2017-Oct-09 04:56N 32°05' W 091°04'3 7.1
2017-Oct-09 04:30N 32°07' W 091°06'1 2.8
2017-Oct-09 04:00N 32°08' W 091°06'3 6.6
2017-Oct-09 03:30N 32°07' W 091°02'4 7.5
2017-Oct-09 03:00N 32°11' W 090°60'4 7.9
2017-Oct-09 02:30N 32°14' W 090°59'4 7.9
2017-Oct-09 02:00N 32°17' W 090°56'3 6.6
2017-Oct-09 01:30N 32°20' W 090°54'4 7.3
2017-Oct-09 01:00N 32°21' W 090°59'3 5.0
2017-Oct-09 00:30N 32°23' W 090°60'3 6.8
2017-Oct-09 00:00N 32°26' W 091°02'4 7.7
2017-Oct-08 23:30N 32°28' W 091°06'1 2.5
2017-Oct-08 23:00N 32°29' W 091°07'0 0.0
2017-Oct-08 22:30N 32°29' W 091°07'0 0.0
2017-Oct-08 22:00N 32°29' W 091°07'0 0.0
2017-Oct-08 21:30N 32°29' W 091°07'0 0.0
2017-Oct-08 21:00N 32°29' W 091°07'0 0.0
2017-Oct-08 20:30N 32°29' W 091°07'0 0.0
2017-Oct-08 20:00N 32°29' W 091°07'2 4.5
2017-Oct-08 19:30N 32°31' W 091°06'4 7.5
2017-Oct-08 19:00N 32°35' W 091°07'5 8.1
2017-Oct-08 18:26N 32°39' W 091°09'  

Dump ship's entire track history